首页
METAR-TAF:

METAR-TAF

机场 :

切爾諾夫策國際機場

切爾諾夫策, 乌克兰

纬度: 48-15-36N, 经度: 025-58-54E, 海拔: 252米

当前天气观测

该预报发布于23分钟前的07:00 UTC
风速4节,风向
温度 1°C
湿度 93%
气压 1021 hPa
能見度: 8000

METAR: UKLN 170700Z 10002MPS 8000 NSC 01/00 Q1021 R15/09//70 NOSIG

时间: 09:23 (07:23 UTC)

预报

该预报发布于2小时和13分钟前的05:10 UTC
预报有效从17日的 06点(UTC)到 17日的 15点(UTC)
风速2节,风向多变
能见度10公里或以上
散云层高于4000英尺
短暂存在
从 17日的 06点(UTC)到 17日的 08点(UTC)
能見度: 2100
轻雾

TAF: UKLN 170510Z 1706/1715 VRB01MPS 9999 SCT040 TX13/1713Z TNM01/1706Z TEMPO 1706/1708 2100 BR

超过4000个机场的气象观测和天气预报(METAR&TAF报告)。

可查询的气象台以黄色和红色小点在地图上表示。

将鼠标移到小点上方,可查看气象台名称。

然后点击查看天气观测和预报。

如需切换地图:点击带黑十字的绿色按钮放大地图;点击带横线的绿色按钮缩小地图;或者点击绿色箭头查看邻近地区的地图。


METAR-TAF: